createdAt,value
2019-01-21T00:01:45.074Z,-5.90
2019-01-21T00:04:16.495Z,-5.90
2019-01-21T00:06:47.126Z,-5.90
2019-01-21T00:09:17.786Z,-5.90
2019-01-21T00:11:48.416Z,-5.90
2019-01-21T00:14:19.490Z,-5.90
2019-01-21T00:16:50.091Z,-5.90
2019-01-21T00:19:20.708Z,-6.00
2019-01-21T00:21:51.352Z,-6.10
2019-01-21T00:24:22.015Z,-6.20
2019-01-21T00:26:52.663Z,-6.10
2019-01-21T00:29:23.307Z,-6.20
2019-01-21T00:31:53.946Z,-6.10
2019-01-21T00:34:24.576Z,-6.10
2019-01-21T00:36:55.221Z,-6.20
2019-01-21T00:39:25.870Z,-6.20
2019-01-21T00:41:56.505Z,-6.30
2019-01-21T00:44:27.168Z,-6.40
2019-01-21T00:46:57.801Z,-6.50
2019-01-21T00:49:28.418Z,-6.50
2019-01-21T00:51:59.213Z,-6.30
2019-01-21T00:54:29.866Z,-6.40
2019-01-21T00:57:00.471Z,-6.50
2019-01-21T00:59:31.086Z,-6.50
2019-01-21T01:02:01.741Z,-6.50
2019-01-21T01:04:33.574Z,-6.50
2019-01-21T01:07:04.203Z,-6.40
2019-01-21T01:09:34.850Z,-6.40
2019-01-21T01:12:05.487Z,-6.40
2019-01-21T01:14:36.146Z,-6.40
2019-01-21T01:17:06.800Z,-6.40
2019-01-21T01:19:37.965Z,-6.30
2019-01-21T01:22:08.606Z,-6.30
2019-01-21T01:24:39.263Z,-6.30
2019-01-21T01:27:09.880Z,-6.30
2019-01-21T01:29:40.546Z,-6.20
2019-01-21T01:32:11.145Z,-6.30
2019-01-21T01:34:41.815Z,-6.30
2019-01-21T01:37:12.419Z,-6.30
2019-01-21T01:39:43.085Z,-6.30
2019-01-21T01:42:13.719Z,-6.30
2019-01-21T01:44:44.379Z,-6.30
2019-01-21T01:47:14.977Z,-6.30
2019-01-21T01:49:46.195Z,-6.30
2019-01-21T01:52:16.945Z,-6.30
2019-01-21T01:54:47.599Z,-6.30
2019-01-21T01:57:19.372Z,-6.30
2019-01-21T01:59:49.993Z,-6.30
2019-01-21T02:02:20.640Z,-6.30
2019-01-21T02:04:52.415Z,-6.30
2019-01-21T02:07:23.089Z,-6.30
2019-01-21T02:09:53.736Z,-6.30
2019-01-21T02:12:24.412Z,-6.30
2019-01-21T02:14:55.114Z,-6.30
2019-01-21T02:17:25.794Z,-6.40
2019-01-21T02:20:02.325Z,-6.40
2019-01-21T02:22:34.631Z,-6.30
2019-01-21T02:25:06.981Z,-6.40
2019-01-21T02:28:08.249Z,-6.40
2019-01-21T02:31:17.368Z,-6.40
2019-01-21T02:34:00.955Z,-6.40
2019-01-21T02:36:44.999Z,-6.50
2019-01-21T02:39:31.701Z,-6.50
2019-01-21T02:42:06.752Z,-6.50
2019-01-21T02:44:56.258Z,-6.50
2019-01-21T02:47:34.143Z,-6.50
2019-01-21T02:50:18.044Z,-6.40
2019-01-21T02:53:21.150Z,-6.60
2019-01-21T02:56:21.361Z,-6.60
2019-01-21T02:59:26.202Z,-6.50
2019-01-21T03:02:32.633Z,-6.60
2019-01-21T03:05:23.404Z,-6.60
2019-01-21T03:08:12.973Z,-6.60
2019-01-21T03:11:23.488Z,-6.60
2019-01-21T03:14:10.362Z,-6.60
2019-01-21T03:17:06.199Z,-6.40
2019-01-21T03:19:55.710Z,-6.70
2019-01-21T03:22:51.248Z,-6.60
2019-01-21T03:25:37.811Z,-6.50
2019-01-21T03:28:54.580Z,-6.60
2019-01-21T03:32:12.905Z,-6.50
2019-01-21T03:35:04.971Z,-6.50
2019-01-21T03:37:58.817Z,-6.50
2019-01-21T03:40:53.840Z,-6.50
2019-01-21T03:43:58.885Z,-6.50
2019-01-21T03:46:51.783Z,-6.50
2019-01-21T03:49:29.266Z,-6.60
2019-01-21T03:52:28.123Z,-6.60
2019-01-21T03:55:00.561Z,-6.60
2019-01-21T03:57:35.618Z,-6.40
2019-01-21T04:00:25.465Z,-6.60
2019-01-21T04:03:12.017Z,-6.60
2019-01-21T04:05:56.737Z,-6.70
2019-01-21T04:08:59.954Z,-6.70
2019-01-21T04:11:40.659Z,-6.50
2019-01-21T04:14:50.147Z,-6.50
2019-01-21T04:18:01.298Z,-6.50
2019-01-21T04:21:03.125Z,-6.40
2019-01-21T04:24:02.004Z,-6.50
2019-01-21T04:26:42.956Z,-6.60
2019-01-21T04:29:35.838Z,-6.60
2019-01-21T04:32:10.907Z,-6.60
2019-01-21T04:35:00.463Z,-6.60
2019-01-21T04:37:38.345Z,-6.60
2019-01-21T04:40:19.291Z,-6.60
2019-01-21T04:43:15.186Z,-6.50
2019-01-21T04:46:19.107Z,-6.60
2019-01-21T04:49:06.127Z,-6.60
2019-01-21T04:51:43.591Z,-6.50
2019-01-21T04:54:27.167Z,-6.50
2019-01-21T04:57:14.178Z,-6.60
2019-01-21T05:00:09.999Z,-6.60
2019-01-21T05:03:17.681Z,-6.60
2019-01-21T05:06:24.766Z,-6.70
2019-01-21T05:09:08.321Z,-6.70
2019-01-21T05:12:02.490Z,-6.50
2019-01-21T05:14:44.009Z,-6.70
2019-01-21T05:17:36.844Z,-6.70
2019-01-21T05:20:11.375Z,-6.70
2019-01-21T05:22:50.416Z,-6.60
2019-01-21T05:25:45.923Z,-6.50
2019-01-21T05:28:37.005Z,-6.60
2019-01-21T05:31:26.978Z,-6.50
2019-01-21T05:34:16.564Z,-6.40
2019-01-21T05:36:59.996Z,-6.40
2019-01-21T05:39:56.374Z,-6.30
2019-01-21T05:42:36.838Z,-6.50
2019-01-21T05:45:50.394Z,-6.60
2019-01-21T05:48:53.786Z,-6.70
2019-01-21T05:52:02.927Z,-6.70
2019-01-21T05:54:43.566Z,-6.80
2019-01-21T05:57:57.678Z,-6.90
2019-01-21T06:00:45.095Z,-6.80
2019-01-21T06:03:32.122Z,-6.90
2019-01-21T06:06:28.494Z,-6.90
2019-01-21T06:09:37.590Z,-7.00
2019-01-21T06:12:34.672Z,-6.90
2019-01-21T06:15:33.254Z,-6.90
2019-01-21T06:18:22.583Z,-7.10
2019-01-21T06:21:06.666Z,-7.10
2019-01-21T06:23:53.183Z,-7.00
2019-01-21T06:26:48.865Z,-6.90
2019-01-21T06:29:35.640Z,-6.90
2019-01-21T06:32:51.102Z,-6.90
2019-01-21T06:35:43.913Z,-6.90
2019-01-21T06:38:30.506Z,-6.80
2019-01-21T06:41:17.244Z,-6.90
2019-01-21T06:43:57.725Z,-6.80
2019-01-21T06:46:51.845Z,-6.80
2019-01-21T06:49:32.596Z,-6.80
2019-01-21T06:52:25.075Z,-6.80
2019-01-21T06:55:20.668Z,-6.80
2019-01-21T06:58:19.334Z,-6.80
2019-01-21T07:00:58.047Z,-6.70
2019-01-21T07:03:47.642Z,-6.70
2019-01-21T07:06:54.671Z,-6.70
2019-01-21T07:09:57.718Z,-6.50
2019-01-21T07:12:48.490Z,-6.50
2019-01-21T07:15:34.919Z,-6.50
2019-01-21T07:18:12.492Z,-6.40
2019-01-21T07:21:05.148Z,-6.40
2019-01-21T07:23:43.178Z,-6.30
2019-01-21T07:26:32.923Z,-6.20
2019-01-21T07:29:07.985Z,-6.20
2019-01-21T07:31:45.476Z,-6.10
2019-01-21T07:34:32.203Z,-5.90
2019-01-21T07:37:12.736Z,-5.80
2019-01-21T07:40:00.088Z,-5.60
2019-01-21T07:43:00.518Z,-5.30
2019-01-21T07:45:41.451Z,-5.30
2019-01-21T07:48:21.192Z,-5.00
2019-01-21T07:51:13.698Z,-4.90
2019-01-21T07:54:17.041Z,-4.90
2019-01-21T07:57:09.781Z,-4.80
2019-01-21T08:00:17.470Z,-4.40
2019-01-21T08:03:10.181Z,-4.50
2019-01-21T08:05:48.076Z,-4.50
2019-01-21T08:08:29.633Z,-4.50
2019-01-21T08:11:37.414Z,-4.40
2019-01-21T08:14:18.037Z,-4.40
2019-01-21T08:17:25.671Z,-4.30
2019-01-21T08:20:21.980Z,-4.30
2019-01-21T08:23:11.885Z,-4.10
2019-01-21T08:26:11.400Z,-3.80
2019-01-21T08:29:07.058Z,-3.30
2019-01-21T08:31:47.965Z,-3.40
2019-01-21T08:34:43.320Z,-3.10
2019-01-21T08:37:21.149Z,-2.90
2019-01-21T08:40:07.494Z,-2.60
2019-01-21T08:43:17.646Z,-2.40
2019-01-21T08:46:10.012Z,-2.30
2019-01-21T08:48:56.605Z,-2.10
2019-01-21T08:51:46.455Z,-2.10
2019-01-21T08:54:30.531Z,-1.90
2019-01-21T08:57:23.363Z,-1.90
2019-01-21T09:00:21.772Z,-1.80
2019-01-21T09:03:22.998Z,-1.70
2019-01-21T09:06:19.783Z,-1.40
2019-01-21T09:09:13.639Z,-1.20
2019-01-21T09:12:29.845Z,-0.90
2019-01-21T09:15:16.705Z,-0.60
2019-01-21T09:18:29.565Z,-0.30
2019-01-21T09:21:19.869Z,-0.20
2019-01-21T09:24:05.676Z,-0.10
2019-01-21T09:27:25.873Z,0.00
2019-01-21T09:29:56.186Z,0.10
2019-01-21T09:32:41.504Z,0.20
2019-01-21T09:35:35.754Z,0.40
2019-01-21T09:38:26.375Z,0.60
2019-01-21T09:41:18.263Z,1.00
2019-01-21T09:43:57.498Z,1.40
2019-01-21T09:46:48.410Z,1.50
2019-01-21T09:49:18.379Z,1.60
2019-01-21T09:51:53.910Z,1.80
2019-01-21T09:54:25.299Z,2.00
2019-01-21T09:57:00.664Z,2.10
2019-01-21T09:59:35.973Z,2.20
2019-01-21T10:02:10.189Z,2.30
2019-01-21T10:04:45.644Z,2.70
2019-01-21T10:07:27.347Z,2.80
2019-01-21T10:10:22.219Z,3.00
2019-01-21T10:13:12.945Z,3.20
2019-01-21T10:16:11.501Z,3.10
2019-01-21T10:18:55.206Z,3.40
2019-01-21T10:21:49.529Z,3.30
2019-01-21T10:24:46.105Z,3.40
2019-01-21T10:27:23.545Z,3.40
2019-01-21T10:30:25.632Z,3.50
2019-01-21T10:33:06.509Z,3.50
2019-01-21T10:35:53.042Z,3.50
2019-01-21T10:38:51.619Z,3.50
2019-01-21T10:41:48.010Z,3.70
2019-01-21T10:44:29.824Z,3.70
2019-01-21T10:47:10.421Z,3.80
2019-01-21T10:49:59.871Z,3.90
2019-01-21T10:52:46.802Z,3.90
2019-01-21T10:55:27.343Z,3.80
2019-01-21T10:58:38.316Z,3.70
2019-01-21T11:01:35.540Z,3.70
2019-01-21T11:04:35.535Z,3.80
2019-01-21T11:07:31.382Z,3.80
2019-01-21T11:10:31.224Z,3.90
2019-01-21T11:13:09.954Z,4.00
2019-01-21T11:15:50.543Z,4.40
2019-01-21T11:19:15.219Z,4.30
2019-01-21T11:21:50.256Z,4.30
2019-01-21T11:24:28.801Z,4.70
2019-01-21T11:27:19.270Z,5.00
2019-01-21T11:30:19.712Z,5.00
2019-01-21T11:33:15.389Z,5.10
2019-01-21T11:36:11.211Z,5.20
2019-01-21T11:38:57.927Z,5.10
2019-01-21T11:41:48.905Z,5.20
2019-01-21T11:44:44.354Z,5.30
2019-01-21T11:48:04.736Z,5.60
2019-01-21T11:50:42.790Z,5.50
2019-01-21T11:53:29.463Z,5.60
2019-01-21T11:56:19.076Z,5.80
2019-01-21T11:59:01.722Z,6.00
2019-01-21T12:01:56.298Z,6.10
2019-01-21T12:04:50.564Z,6.20
2019-01-21T12:07:44.712Z,6.40
2019-01-21T12:10:34.604Z,6.70
2019-01-21T12:13:57.065Z,6.60
2019-01-21T12:17:02.418Z,6.90
2019-01-21T12:20:17.234Z,6.70
2019-01-21T12:22:58.158Z,7.30
2019-01-21T12:25:36.425Z,7.10
2019-01-21T12:28:34.779Z,6.90
2019-01-21T12:31:24.791Z,6.80
2019-01-21T12:34:12.907Z,6.90
2019-01-21T12:36:56.376Z,6.80
2019-01-21T12:39:52.016Z,7.00
2019-01-21T12:42:31.746Z,7.20
2019-01-21T12:45:21.729Z,7.40
2019-01-21T12:48:08.269Z,7.60
2019-01-21T12:51:08.748Z,7.60
2019-01-21T12:54:08.787Z,7.90
2019-01-21T12:57:25.601Z,8.00
2019-01-21T13:00:06.279Z,7.60
2019-01-21T13:03:11.058Z,7.40
2019-01-21T13:06:08.168Z,7.40
2019-01-21T13:08:43.170Z,7.00
2019-01-21T13:11:18.200Z,6.90
2019-01-21T13:13:54.043Z,6.90
2019-01-21T13:16:38.816Z,7.10
2019-01-21T13:19:46.663Z,7.10
2019-01-21T13:22:33.123Z,7.20
2019-01-21T13:25:19.606Z,7.40
2019-01-21T13:28:15.250Z,7.40
2019-01-21T13:31:13.231Z,7.30
2019-01-21T13:33:57.484Z,7.20
2019-01-21T13:36:58.852Z,6.90
2019-01-21T13:39:44.609Z,7.00
2019-01-21T13:42:19.825Z,7.20
2019-01-21T13:45:13.649Z,7.10
2019-01-21T13:48:08.432Z,7.10
2019-01-21T13:51:00.527Z,7.20
2019-01-21T13:53:40.899Z,7.30
2019-01-21T13:56:45.695Z,7.30
2019-01-21T13:59:59.671Z,7.10
2019-01-21T14:02:41.169Z,7.10
2019-01-21T14:05:31.755Z,7.00
2019-01-21T14:08:16.637Z,6.90
2019-01-21T14:14:14.516Z,7.30
2019-01-21T14:21:36.280Z,7.30
2019-01-21T14:24:17.816Z,7.20
2019-01-21T14:30:59.902Z,7.30
2019-01-21T14:33:57.695Z,7.20
2019-01-21T14:37:03.942Z,7.10
2019-01-21T14:45:53.441Z,7.00
2019-01-21T14:52:18.586Z,6.60
2019-01-21T14:55:29.255Z,6.50
2019-01-21T14:58:13.322Z,6.30
2019-01-21T15:01:24.002Z,6.20
2019-01-21T15:04:11.164Z,6.00
2019-01-21T15:14:05.531Z,5.80
2019-01-21T15:22:54.939Z,5.20
2019-01-21T15:26:03.423Z,5.10
2019-01-21T15:35:05.852Z,4.70
2019-01-21T15:38:16.444Z,4.50
2019-01-21T15:41:03.044Z,4.40
2019-01-21T15:43:47.740Z,4.10
2019-01-21T15:46:40.265Z,3.90
2019-01-21T15:53:00.802Z,3.60
2019-01-21T15:59:12.908Z,3.30
2019-01-21T16:02:02.830Z,3.20
2019-01-21T16:04:51.959Z,3.20
2019-01-21T16:07:45.145Z,3.30
2019-01-21T16:10:29.385Z,3.40
2019-01-21T16:13:13.937Z,3.10
2019-01-21T16:16:05.930Z,2.90
2019-01-21T16:22:17.803Z,2.50
2019-01-21T16:25:10.889Z,2.50
2019-01-21T16:31:17.479Z,2.30
2019-01-21T16:34:02.169Z,2.20
2019-01-21T16:37:12.817Z,2.10
2019-01-21T16:40:19.467Z,1.80
2019-01-21T16:43:10.970Z,1.60
2019-01-21T16:45:55.219Z,1.50
2019-01-21T16:48:37.942Z,1.40
2019-01-21T16:51:31.106Z,1.30
2019-01-21T16:54:21.736Z,1.10
2019-01-21T16:57:25.248Z,1.10
2019-01-21T17:00:00.511Z,1.10
2019-01-21T17:05:32.910Z,0.90
2019-01-21T17:08:15.451Z,0.80
2019-01-21T17:10:57.931Z,0.90
2019-01-21T17:13:48.182Z,0.60
2019-01-21T17:16:31.011Z,0.50
2019-01-21T17:19:13.940Z,0.40
2019-01-21T17:21:57.833Z,0.30
2019-01-21T17:25:12.611Z,0.20
2019-01-21T17:27:40.394Z,0.00
2019-01-21T17:30:30.339Z,-0.10
2019-01-21T17:33:14.381Z,0.00
2019-01-21T17:35:57.440Z,-0.20
2019-01-21T17:38:43.572Z,-0.10
2019-01-21T17:41:29.649Z,-0.10
2019-01-21T17:44:18.873Z,-0.20
2019-01-21T17:47:02.414Z,-0.30
2019-01-21T17:52:46.235Z,-0.50
2019-01-21T17:55:36.318Z,-0.50
2019-01-21T17:58:27.120Z,-0.70
2019-01-21T18:01:39.357Z,-0.70
2019-01-21T18:04:28.088Z,-1.00
2019-01-21T18:10:21.819Z,-1.10
2019-01-21T18:13:10.168Z,-1.30
2019-01-21T18:15:52.925Z,-1.30
2019-01-21T18:21:40.208Z,-1.40
2019-01-21T18:24:29.226Z,-1.50
2019-01-21T18:27:14.642Z,-1.50
2019-01-21T18:30:01.873Z,-1.60
2019-01-21T18:33:19.859Z,-1.60
2019-01-21T18:35:42.071Z,-1.60
2019-01-21T18:38:25.622Z,-1.60
2019-01-21T18:41:10.001Z,-1.70
2019-01-21T18:43:52.575Z,-1.90
2019-01-21T18:46:41.411Z,-1.90
2019-01-21T18:56:16.546Z,-2.10
2019-01-21T18:58:50.296Z,-2.20
2019-01-21T19:01:41.439Z,-2.20
2019-01-21T19:07:24.427Z,-2.30
2019-01-21T19:10:14.039Z,-2.40
2019-01-21T19:15:58.329Z,-2.50
2019-01-21T19:18:41.409Z,-2.50
2019-01-21T19:21:28.431Z,-2.60
2019-01-21T19:24:13.882Z,-2.60
2019-01-21T19:27:19.947Z,-2.70
2019-01-21T19:29:53.819Z,-2.90
2019-01-21T19:32:38.251Z,-2.90
2019-01-21T19:38:42.932Z,-3.10
2019-01-21T19:41:26.630Z,-3.20
2019-01-21T19:44:14.515Z,-3.30
2019-01-21T19:46:59.088Z,-3.30
2019-01-21T19:49:47.925Z,-3.30
2019-01-21T19:52:37.971Z,-3.40
2019-01-21T19:55:25.677Z,-3.50
2019-01-21T19:58:36.580Z,-3.60
2019-01-21T20:01:26.000Z,-3.60
2019-01-21T20:07:25.606Z,-3.70
2019-01-21T20:10:29.421Z,-3.70
2019-01-21T20:16:15.019Z,-3.70
2019-01-21T20:18:58.201Z,-3.70
2019-01-21T20:21:48.136Z,-3.80
2019-01-21T20:24:31.067Z,-3.80
2019-01-21T20:27:13.873Z,-3.90
2019-01-21T20:29:57.452Z,-4.00
2019-01-21T20:32:42.435Z,-4.20
2019-01-21T20:35:25.382Z,-4.20
2019-01-21T20:38:08.836Z,-4.20
2019-01-21T20:40:51.377Z,-4.20
2019-01-21T20:43:34.541Z,-4.40
2019-01-21T20:46:17.563Z,-4.50
2019-01-21T20:49:00.460Z,-4.50
2019-01-21T20:54:44.221Z,-4.70
2019-01-21T20:57:34.115Z,-4.70
2019-01-21T21:00:24.140Z,-4.80
2019-01-21T21:03:34.895Z,-5.00
2019-01-21T21:06:24.451Z,-5.00
2019-01-21T21:09:14.324Z,-5.00
2019-01-21T21:11:58.908Z,-5.00
2019-01-21T21:14:42.744Z,-5.10
2019-01-21T21:17:25.205Z,-5.20
2019-01-21T21:20:49.086Z,-5.10
2019-01-21T21:23:30.094Z,-5.10
2019-01-21T21:26:13.008Z,-5.20
2019-01-21T21:28:57.788Z,-5.20
2019-01-21T21:31:44.854Z,-5.30
2019-01-21T21:34:30.056Z,-5.30
2019-01-21T21:37:13.286Z,-5.20
2019-01-21T21:39:56.357Z,-5.20
2019-01-21T21:42:46.322Z,-5.20
2019-01-21T21:48:35.385Z,-5.40
2019-01-21T21:51:17.983Z,-5.40
2019-01-21T21:54:00.827Z,-5.50
2019-01-21T21:56:43.619Z,-5.60
2019-01-21T21:59:26.864Z,-5.70
2019-01-21T22:02:12.828Z,-5.70
2019-01-21T22:04:56.604Z,-5.80
2019-01-21T22:07:39.471Z,-5.90
2019-01-21T22:10:39.671Z,-5.90
2019-01-21T22:13:16.557Z,-6.00
2019-01-21T22:15:59.618Z,-6.00
2019-01-21T22:18:30.469Z,-6.00
2019-01-21T22:21:01.091Z,-6.10
2019-01-21T22:23:31.580Z,-6.20
2019-01-21T22:26:02.209Z,-6.20
2019-01-21T22:28:32.787Z,-6.20
2019-01-21T22:31:03.632Z,-6.20
2019-01-21T22:33:35.019Z,-6.20
2019-01-21T22:36:08.519Z,-6.20
2019-01-21T22:38:39.083Z,-6.20
2019-01-21T22:41:10.459Z,-6.10
2019-01-21T22:43:41.142Z,-6.10
2019-01-21T22:46:12.535Z,-6.10
2019-01-21T22:48:43.480Z,-6.10
2019-01-21T22:51:14.484Z,-6.10
2019-01-21T22:53:47.910Z,-6.20
2019-01-21T22:56:18.568Z,-6.10
2019-01-21T22:58:49.199Z,-6.10
2019-01-21T23:01:23.172Z,-6.10
2019-01-21T23:03:53.995Z,-6.20
2019-01-21T23:06:24.756Z,-6.20
2019-01-21T23:08:55.403Z,-6.30
2019-01-21T23:11:26.445Z,-6.40
2019-01-21T23:13:57.392Z,-6.40
2019-01-21T23:16:29.311Z,-6.40
2019-01-21T23:18:59.888Z,-6.40
2019-01-21T23:21:32.952Z,-6.50
2019-01-21T23:24:03.574Z,-6.70
2019-01-21T23:26:34.529Z,-6.80
2019-01-21T23:29:05.244Z,-6.90
2019-01-21T23:31:35.997Z,-7.00
2019-01-21T23:34:07.348Z,-7.10
2019-01-21T23:36:38.068Z,-7.20
2019-01-21T23:39:09.089Z,-7.30
2019-01-21T23:41:39.770Z,-7.30
2019-01-21T23:44:10.744Z,-7.30
2019-01-21T23:46:41.672Z,-7.30
2019-01-21T23:49:12.149Z,-7.40
2019-01-21T23:51:42.803Z,-7.40
2019-01-21T23:54:13.428Z,-7.50
2019-01-21T23:56:43.936Z,-7.40
2019-01-21T23:59:14.420Z,-7.40
